createdAt,value
2022-12-22T00:00:39.550Z,10.40
2022-12-22T00:03:32.588Z,10.40
2022-12-22T00:06:18.211Z,10.40
2022-12-22T00:09:05.867Z,10.40
2022-12-22T00:11:52.235Z,10.40
2022-12-22T00:14:39.078Z,10.40
2022-12-22T00:17:43.771Z,10.40
2022-12-22T00:20:37.274Z,10.40
2022-12-22T00:23:23.355Z,10.40
2022-12-22T00:26:09.063Z,10.40
2022-12-22T00:28:55.183Z,10.40
2022-12-22T00:31:42.405Z,10.40
2022-12-22T00:34:34.408Z,10.50
2022-12-22T00:37:20.037Z,10.50
2022-12-22T00:40:05.931Z,10.50
2022-12-22T00:42:51.422Z,10.50
2022-12-22T00:45:37.278Z,10.60
2022-12-22T00:48:30.736Z,10.60
2022-12-22T00:51:16.575Z,10.60
2022-12-22T00:54:02.125Z,10.60
2022-12-22T00:56:47.731Z,10.60
2022-12-22T00:59:33.120Z,10.70
2022-12-22T01:02:18.941Z,10.70
2022-12-22T01:05:05.884Z,10.70
2022-12-22T01:07:52.008Z,10.70
2022-12-22T01:10:43.080Z,10.70
2022-12-22T01:13:30.799Z,10.80
2022-12-22T01:16:16.380Z,10.80
2022-12-22T01:19:02.020Z,10.70
2022-12-22T01:21:49.025Z,10.80
2022-12-22T01:24:37.149Z,10.80
2022-12-22T01:27:23.562Z,10.80
2022-12-22T01:30:09.299Z,10.80
2022-12-22T01:32:54.712Z,10.80
2022-12-22T01:35:47.690Z,10.80
2022-12-22T01:38:34.910Z,10.80
2022-12-22T01:41:23.469Z,10.80
2022-12-22T01:44:09.291Z,10.80
2022-12-22T01:47:00.233Z,10.90
2022-12-22T01:49:54.031Z,10.90
2022-12-22T01:52:45.405Z,10.90
2022-12-22T01:55:38.467Z,10.80
2022-12-22T01:58:36.175Z,10.90
2022-12-22T02:01:21.627Z,10.90
2022-12-22T02:04:07.043Z,10.90
2022-12-22T02:07:00.195Z,10.90
2022-12-22T02:10:02.680Z,11.00
2022-12-22T02:12:58.458Z,11.00
2022-12-22T02:15:55.070Z,11.00
2022-12-22T02:18:50.409Z,11.00
2022-12-22T02:21:41.410Z,11.00
2022-12-22T02:24:42.681Z,11.00
2022-12-22T02:27:31.015Z,11.00
2022-12-22T02:30:23.012Z,11.00
2022-12-22T02:33:10.107Z,11.10
2022-12-22T02:36:06.480Z,11.00
2022-12-22T02:39:06.189Z,11.00
2022-12-22T02:42:06.591Z,11.00
2022-12-22T02:45:11.911Z,10.90
2022-12-22T02:48:06.978Z,10.90
2022-12-22T02:51:01.380Z,10.90
2022-12-22T02:53:49.599Z,10.90
2022-12-22T02:56:35.642Z,10.90
2022-12-22T02:59:20.953Z,10.80
2022-12-22T03:02:07.961Z,10.90
2022-12-22T03:04:53.768Z,10.90
2022-12-22T03:07:39.230Z,10.90
2022-12-22T03:10:26.709Z,10.90
2022-12-22T03:13:12.339Z,10.90
2022-12-22T03:15:57.766Z,10.90
2022-12-22T03:18:44.763Z,10.90
2022-12-22T03:21:30.423Z,10.90
2022-12-22T03:24:16.113Z,10.90
2022-12-22T03:26:44.271Z,10.90
2022-12-22T03:29:12.312Z,10.80
2022-12-22T03:31:40.393Z,10.90
2022-12-22T03:34:09.834Z,10.90
2022-12-22T03:36:37.897Z,10.90
2022-12-22T03:39:05.985Z,10.90
2022-12-22T03:41:51.419Z,11.00
2022-12-22T03:44:37.105Z,11.00
2022-12-22T03:47:05.399Z,11.10
2022-12-22T03:49:34.935Z,11.10
2022-12-22T03:52:03.104Z,11.10
2022-12-22T03:54:31.123Z,11.10
2022-12-22T03:56:59.199Z,11.20
2022-12-22T03:59:27.293Z,11.20
2022-12-22T04:01:56.168Z,11.30
2022-12-22T04:04:27.349Z,11.30
2022-12-22T04:06:57.224Z,11.50
2022-12-22T04:09:27.298Z,11.50
2022-12-22T04:12:13.340Z,11.50
2022-12-22T04:14:41.403Z,11.50
2022-12-22T04:17:09.822Z,11.50
2022-12-22T04:19:38.090Z,11.50
2022-12-22T04:22:07.441Z,11.40
2022-12-22T04:24:35.574Z,11.30
2022-12-22T04:27:03.602Z,11.30
2022-12-22T04:29:31.562Z,11.30
2022-12-22T04:31:59.842Z,11.30
2022-12-22T04:34:27.896Z,11.30
2022-12-22T04:37:00.510Z,11.40
2022-12-22T04:39:33.844Z,11.40
2022-12-22T04:42:01.886Z,11.40
2022-12-22T04:44:29.895Z,11.30
2022-12-22T04:46:57.937Z,11.40
2022-12-22T04:49:25.985Z,11.30
2022-12-22T04:51:54.001Z,11.30
2022-12-22T04:54:22.179Z,11.30
2022-12-22T04:56:52.184Z,11.30
2022-12-22T04:59:20.189Z,11.40
2022-12-22T05:01:48.445Z,11.40
2022-12-22T05:04:23.389Z,11.40
2022-12-22T05:06:52.139Z,11.40
2022-12-22T05:09:20.450Z,11.40
2022-12-22T05:11:48.467Z,11.50
2022-12-22T05:14:17.946Z,11.40
2022-12-22T05:16:46.039Z,11.50
2022-12-22T05:19:14.092Z,11.30
2022-12-22T05:21:42.160Z,11.40
2022-12-22T05:24:10.260Z,11.40
2022-12-22T05:26:38.260Z,11.40
2022-12-22T05:29:06.385Z,11.30
2022-12-22T05:31:39.524Z,11.30
2022-12-22T05:34:11.311Z,11.20
2022-12-22T05:36:39.413Z,11.20
2022-12-22T05:39:07.536Z,11.20
2022-12-22T05:41:35.826Z,11.30
2022-12-22T05:44:04.200Z,11.30
2022-12-22T05:46:32.276Z,11.30
2022-12-22T05:49:01.675Z,11.10
2022-12-22T05:51:30.081Z,11.10
2022-12-22T05:53:58.047Z,11.10
2022-12-22T05:56:26.201Z,11.00
2022-12-22T05:58:54.182Z,10.90
2022-12-22T06:01:22.504Z,10.90
2022-12-22T06:03:56.168Z,11.00
2022-12-22T06:06:28.819Z,11.00
2022-12-22T06:08:56.973Z,11.00
2022-12-22T06:11:24.984Z,11.00
2022-12-22T06:13:53.012Z,11.00
2022-12-22T06:16:21.136Z,11.00
2022-12-22T06:18:49.481Z,11.00
2022-12-22T06:21:17.503Z,11.00
2022-12-22T06:23:46.940Z,11.00
2022-12-22T06:26:14.931Z,10.90
2022-12-22T06:28:42.947Z,10.90
2022-12-22T06:31:11.081Z,10.90
2022-12-22T06:33:39.239Z,10.90
2022-12-22T06:36:09.044Z,10.80
2022-12-22T06:38:37.095Z,10.80
2022-12-22T06:41:06.979Z,10.80
2022-12-22T06:43:34.051Z,10.80
2022-12-22T06:46:02.135Z,10.80
2022-12-22T06:48:30.237Z,10.80
2022-12-22T06:51:00.775Z,10.90
2022-12-22T06:53:28.945Z,10.90
2022-12-22T06:55:57.098Z,11.00
2022-12-22T06:58:26.511Z,11.10
2022-12-22T07:00:57.828Z,11.00
2022-12-22T07:03:26.019Z,11.00
2022-12-22T07:05:54.147Z,11.00
2022-12-22T07:08:22.325Z,11.00
2022-12-22T07:10:59.382Z,10.90
2022-12-22T07:13:31.778Z,11.00
2022-12-22T07:16:02.497Z,10.90
2022-12-22T07:18:32.763Z,10.80
2022-12-22T07:21:01.464Z,10.80
2022-12-22T07:23:30.581Z,10.80
2022-12-22T07:25:58.716Z,10.80
2022-12-22T07:28:28.953Z,10.70
2022-12-22T07:30:57.453Z,10.70
2022-12-22T07:33:25.752Z,10.80
2022-12-22T07:36:04.662Z,10.70
2022-12-22T07:38:36.017Z,10.70
2022-12-22T07:41:24.828Z,10.70
2022-12-22T07:43:54.232Z,10.70
2022-12-22T07:46:23.207Z,10.70
2022-12-22T07:49:09.330Z,10.70
2022-12-22T07:51:40.802Z,10.70
2022-12-22T07:54:11.014Z,10.70
2022-12-22T07:56:39.918Z,10.70
2022-12-22T07:59:10.457Z,10.70
2022-12-22T08:01:39.971Z,10.70
2022-12-22T08:04:09.002Z,10.70
2022-12-22T08:06:37.565Z,10.70
2022-12-22T08:09:08.363Z,10.70
2022-12-22T08:11:36.738Z,10.70
2022-12-22T08:14:04.769Z,10.70
2022-12-22T08:16:34.198Z,10.80
2022-12-22T08:19:02.317Z,10.90
2022-12-22T08:21:30.341Z,11.00
2022-12-22T08:23:58.589Z,11.00
2022-12-22T08:26:32.211Z,11.00
2022-12-22T08:29:08.614Z,11.00
2022-12-22T08:31:38.205Z,11.20
2022-12-22T08:34:10.255Z,11.30
2022-12-22T08:36:42.964Z,11.30
2022-12-22T08:39:13.222Z,11.40
2022-12-22T08:41:53.593Z,11.40
2022-12-22T08:44:24.758Z,11.40
2022-12-22T08:46:57.323Z,11.40
2022-12-22T08:49:28.282Z,11.30
2022-12-22T08:51:56.508Z,11.30
2022-12-22T08:54:26.358Z,11.20
2022-12-22T08:56:54.691Z,11.20
2022-12-22T08:59:22.816Z,11.20
2022-12-22T09:01:51.492Z,11.10
2022-12-22T09:04:25.312Z,11.20
2022-12-22T09:06:54.445Z,11.10
2022-12-22T09:09:23.628Z,11.20
2022-12-22T09:11:55.002Z,11.20
2022-12-22T09:14:23.249Z,11.10
2022-12-22T09:16:53.180Z,11.10
2022-12-22T09:19:23.255Z,11.10
2022-12-22T09:21:51.626Z,11.10
2022-12-22T09:24:21.025Z,11.10
2022-12-22T09:26:49.241Z,11.10
2022-12-22T09:29:17.916Z,11.20
2022-12-22T09:31:47.934Z,11.10
2022-12-22T09:34:20.520Z,11.10
2022-12-22T09:36:50.277Z,11.10
2022-12-22T09:39:28.870Z,11.00
2022-12-22T09:42:01.194Z,11.00
2022-12-22T09:44:37.792Z,11.00
2022-12-22T09:47:19.428Z,11.00
2022-12-22T09:49:54.352Z,10.90
2022-12-22T09:52:43.762Z,11.00
2022-12-22T09:55:28.785Z,10.90
2022-12-22T09:57:58.345Z,10.80
2022-12-22T10:00:32.841Z,10.80
2022-12-22T10:03:15.527Z,10.80
2022-12-22T10:05:52.040Z,10.70
2022-12-22T10:08:30.719Z,10.80
2022-12-22T10:10:58.900Z,10.80
2022-12-22T10:13:26.994Z,10.80
2022-12-22T10:15:55.813Z,10.90
2022-12-22T10:18:27.037Z,11.00
2022-12-22T10:21:12.429Z,11.00
2022-12-22T10:23:47.170Z,11.00
2022-12-22T10:26:30.719Z,11.10
2022-12-22T10:29:05.915Z,11.10
2022-12-22T10:31:36.997Z,11.20
2022-12-22T10:34:15.081Z,11.20
2022-12-22T10:36:48.740Z,11.20
2022-12-22T10:39:25.528Z,11.20
2022-12-22T10:42:01.147Z,11.40
2022-12-22T10:44:34.611Z,11.40
2022-12-22T10:47:17.915Z,11.40
2022-12-22T10:49:50.030Z,11.50
2022-12-22T10:52:29.497Z,11.40
2022-12-22T10:55:17.304Z,11.50
2022-12-22T10:57:45.590Z,11.40
2022-12-22T11:00:27.360Z,11.40
2022-12-22T11:02:57.918Z,11.40
2022-12-22T11:05:26.688Z,11.40
2022-12-22T11:07:56.520Z,11.40
2022-12-22T11:10:38.200Z,11.50
2022-12-22T11:13:30.529Z,11.70
2022-12-22T11:16:09.777Z,11.70
2022-12-22T11:18:55.986Z,11.70
2022-12-22T11:21:37.477Z,11.80
2022-12-22T11:24:33.486Z,11.70
2022-12-22T11:27:24.360Z,11.60
2022-12-22T11:30:08.844Z,11.50
2022-12-22T11:33:16.940Z,11.50
2022-12-22T11:35:58.523Z,11.40
2022-12-22T11:38:45.534Z,11.40
2022-12-22T11:41:43.553Z,11.50
2022-12-22T11:44:40.908Z,11.50
2022-12-22T11:47:27.332Z,11.40
2022-12-22T11:50:58.746Z,11.40
2022-12-22T11:53:46.877Z,11.40
2022-12-22T11:56:24.545Z,11.30
2022-12-22T11:59:27.073Z,11.30
2022-12-22T12:02:20.124Z,11.40
2022-12-22T12:05:26.271Z,11.40
2022-12-22T12:08:06.921Z,11.60
2022-12-22T12:10:45.953Z,11.70
2022-12-22T12:13:31.717Z,11.70
2022-12-22T12:16:18.862Z,11.70
2022-12-22T12:19:33.313Z,11.80
2022-12-22T12:22:05.995Z,12.20
2022-12-22T12:25:00.735Z,13.30
2022-12-22T12:27:55.191Z,13.60
2022-12-22T12:30:38.113Z,13.20
2022-12-22T12:33:19.289Z,13.10
2022-12-22T12:36:04.119Z,13.10
2022-12-22T12:41:46.638Z,12.90
2022-12-22T12:44:18.929Z,12.90
2022-12-22T12:47:07.197Z,12.60
2022-12-22T12:50:43.211Z,12.20
2022-12-22T12:53:11.982Z,12.00
2022-12-22T12:56:10.727Z,11.80
2022-12-22T12:58:53.118Z,11.60
2022-12-22T13:02:00.710Z,11.50
2022-12-22T13:05:31.572Z,11.40
2022-12-22T13:08:17.501Z,11.50
2022-12-22T13:11:52.681Z,11.70
2022-12-22T13:14:12.597Z,11.80
2022-12-22T13:16:41.633Z,11.90
2022-12-22T13:19:28.152Z,11.90
2022-12-22T13:21:58.048Z,11.80
2022-12-22T13:24:34.786Z,11.80
2022-12-22T13:27:08.583Z,11.60
2022-12-22T13:29:47.590Z,11.40
2022-12-22T13:32:32.177Z,11.20
2022-12-22T13:35:32.090Z,11.10
2022-12-22T13:38:01.343Z,10.80
2022-12-22T13:40:32.920Z,10.60
2022-12-22T13:43:06.668Z,10.40
2022-12-22T13:45:39.616Z,10.30
2022-12-22T13:48:17.806Z,10.20
2022-12-22T13:50:51.297Z,10.20
2022-12-22T13:56:27.095Z,10.10
2022-12-22T13:59:00.699Z,10.10
2022-12-22T14:01:29.085Z,10.10
2022-12-22T14:04:03.768Z,10.10
2022-12-22T14:06:35.758Z,10.10
2022-12-22T14:09:16.290Z,10.20
2022-12-22T14:11:52.449Z,10.30
2022-12-22T14:14:26.539Z,10.20
2022-12-22T14:16:58.525Z,10.30
2022-12-22T14:19:31.850Z,10.30
2022-12-22T14:22:05.883Z,10.30
2022-12-22T14:24:43.953Z,10.40
2022-12-22T14:27:24.787Z,10.40
2022-12-22T14:29:53.279Z,10.50
2022-12-22T14:32:38.439Z,10.50
2022-12-22T14:35:27.448Z,10.60
2022-12-22T14:38:08.986Z,10.60
2022-12-22T14:40:40.395Z,10.60
2022-12-22T14:43:26.814Z,10.60
2022-12-22T14:46:06.617Z,10.60
2022-12-22T14:48:40.898Z,10.60
2022-12-22T14:51:09.361Z,10.60
2022-12-22T14:53:46.324Z,10.60
2022-12-22T14:56:17.790Z,10.60
2022-12-22T14:58:49.582Z,10.60
2022-12-22T15:01:22.952Z,10.60
2022-12-22T15:04:07.395Z,10.60
2022-12-22T15:06:41.602Z,10.70
2022-12-22T15:12:19.010Z,10.60
2022-12-22T15:14:49.889Z,10.70
2022-12-22T15:17:25.513Z,10.70
2022-12-22T15:19:58.786Z,10.70
2022-12-22T15:22:26.873Z,10.60
2022-12-22T15:24:54.861Z,10.60
2022-12-22T15:27:22.895Z,10.70
2022-12-22T15:29:52.329Z,10.70
2022-12-22T15:32:20.326Z,10.70
2022-12-22T15:34:48.330Z,10.70
2022-12-22T15:37:16.320Z,10.70
2022-12-22T15:39:45.849Z,10.70
2022-12-22T15:42:14.165Z,10.60
2022-12-22T15:44:42.380Z,10.60
2022-12-22T15:47:13.483Z,10.60
2022-12-22T15:49:41.854Z,10.70
2022-12-22T15:52:14.687Z,10.70
2022-12-22T15:54:42.947Z,10.70
2022-12-22T15:57:14.857Z,10.70
2022-12-22T15:59:42.933Z,10.60
2022-12-22T16:02:14.928Z,10.70
2022-12-22T16:04:43.136Z,10.60
2022-12-22T16:07:13.062Z,10.60
2022-12-22T16:09:45.444Z,10.60
2022-12-22T16:12:16.519Z,10.70
2022-12-22T16:14:51.108Z,10.70
2022-12-22T16:17:24.942Z,10.60
2022-12-22T16:19:53.368Z,10.70
2022-12-22T16:22:32.505Z,10.70
2022-12-22T16:25:03.550Z,10.60
2022-12-22T16:27:32.168Z,10.70
2022-12-22T16:30:00.325Z,10.70
2022-12-22T16:32:32.379Z,10.70
2022-12-22T16:35:15.926Z,10.70
2022-12-22T16:37:44.663Z,10.70
2022-12-22T16:40:24.011Z,10.70
2022-12-22T16:45:53.234Z,10.70
2022-12-22T16:48:31.623Z,10.60
2022-12-22T16:50:59.996Z,10.60
2022-12-22T16:53:28.751Z,10.60
2022-12-22T16:56:01.160Z,10.70
2022-12-22T16:58:29.169Z,10.70
2022-12-22T17:00:57.372Z,10.70
2022-12-22T17:03:29.721Z,10.80
2022-12-22T17:06:03.260Z,10.70
2022-12-22T17:08:35.315Z,10.80
2022-12-22T17:11:11.470Z,10.70
2022-12-22T17:13:40.337Z,10.80
2022-12-22T17:16:18.501Z,10.80
2022-12-22T17:18:48.136Z,10.70
2022-12-22T17:21:19.970Z,10.70
2022-12-22T17:23:52.600Z,10.70
2022-12-22T17:26:25.626Z,10.60
2022-12-22T17:28:54.269Z,10.70
2022-12-22T17:31:25.003Z,10.70
2022-12-22T17:33:54.429Z,10.70
2022-12-22T17:36:33.952Z,10.70
2022-12-22T17:39:03.431Z,10.60
2022-12-22T17:41:31.720Z,10.60
2022-12-22T17:44:00.948Z,10.50
2022-12-22T17:46:29.407Z,10.50
2022-12-22T17:48:59.297Z,10.50
2022-12-22T17:51:30.367Z,10.40
2022-12-22T17:53:59.699Z,10.40
2022-12-22T17:56:29.857Z,10.40
2022-12-22T17:58:58.652Z,10.30
2022-12-22T18:01:29.701Z,10.30
2022-12-22T18:03:59.939Z,10.30
2022-12-22T18:06:34.010Z,10.40
2022-12-22T18:09:03.305Z,10.20
2022-12-22T18:11:31.573Z,10.20
2022-12-22T18:14:01.132Z,10.10
2022-12-22T18:16:29.368Z,10.20
2022-12-22T18:18:58.897Z,10.10
2022-12-22T18:21:26.999Z,10.00
2022-12-22T18:23:55.126Z,10.00
2022-12-22T18:26:25.873Z,10.00
2022-12-22T18:28:55.109Z,10.00
2022-12-22T18:31:24.890Z,9.90
2022-12-22T18:33:53.392Z,10.00
2022-12-22T18:36:31.921Z,9.90
2022-12-22T18:39:02.452Z,9.90
2022-12-22T18:41:34.770Z,10.00
2022-12-22T18:44:02.739Z,10.00
2022-12-22T18:46:30.828Z,10.10
2022-12-22T18:49:05.028Z,10.20
2022-12-22T18:51:35.044Z,10.30
2022-12-22T18:54:03.498Z,10.30
2022-12-22T18:56:31.478Z,10.30
2022-12-22T18:58:59.471Z,10.30
2022-12-22T19:01:28.311Z,10.30
2022-12-22T19:03:58.897Z,10.30
2022-12-22T19:06:26.960Z,10.30
2022-12-22T19:08:56.306Z,10.30
2022-12-22T19:11:28.809Z,10.30
2022-12-22T19:13:56.980Z,10.30
2022-12-22T19:16:29.925Z,10.30
2022-12-22T19:19:01.562Z,10.30
2022-12-22T19:21:29.701Z,10.30
2022-12-22T19:23:59.498Z,10.30
2022-12-22T19:26:28.448Z,10.30
2022-12-22T19:29:00.611Z,10.30
2022-12-22T19:31:34.013Z,10.20
2022-12-22T19:34:11.160Z,10.20
2022-12-22T19:36:39.148Z,10.20
2022-12-22T19:39:08.735Z,10.10
2022-12-22T19:41:42.778Z,10.20
2022-12-22T19:44:24.254Z,10.00
2022-12-22T19:46:54.115Z,10.10
2022-12-22T19:49:26.961Z,10.00
2022-12-22T19:51:56.127Z,10.00
2022-12-22T19:54:25.742Z,10.00
2022-12-22T19:56:56.971Z,10.00
2022-12-22T19:59:38.560Z,9.90
2022-12-22T20:02:27.368Z,9.90
2022-12-22T20:04:57.044Z,9.90
2022-12-22T20:07:27.797Z,9.90
2022-12-22T20:09:57.215Z,9.90
2022-12-22T20:12:31.497Z,9.90
2022-12-22T20:15:00.033Z,9.80
2022-12-22T20:17:28.611Z,9.80
2022-12-22T20:19:56.601Z,9.80
2022-12-22T20:22:25.110Z,9.80
2022-12-22T20:24:54.486Z,9.80
2022-12-22T20:27:30.934Z,9.80
2022-12-22T20:29:58.980Z,9.70
2022-12-22T20:32:28.457Z,9.70
2022-12-22T20:34:57.165Z,9.70
2022-12-22T20:37:26.178Z,9.70
2022-12-22T20:39:54.511Z,9.70
2022-12-22T20:42:27.132Z,9.70
2022-12-22T20:45:03.264Z,9.70
2022-12-22T20:47:33.955Z,9.70
2022-12-22T20:50:02.248Z,9.70
2022-12-22T20:52:30.322Z,9.70
2022-12-22T20:54:58.723Z,9.90
2022-12-22T20:57:32.239Z,9.70
2022-12-22T21:00:00.312Z,9.80
2022-12-22T21:02:29.219Z,9.80
2022-12-22T21:04:58.223Z,9.80
2022-12-22T21:07:26.614Z,9.80
2022-12-22T21:09:54.730Z,9.90
2022-12-22T21:12:22.822Z,9.80
2022-12-22T21:14:52.351Z,9.80
2022-12-22T21:17:20.887Z,9.80
2022-12-22T21:19:49.740Z,9.80
2022-12-22T21:22:18.026Z,9.80
2022-12-22T21:24:46.239Z,9.90
2022-12-22T21:27:21.233Z,9.90
2022-12-22T21:29:49.361Z,9.90
2022-12-22T21:32:18.781Z,10.00
2022-12-22T21:34:46.799Z,10.00
2022-12-22T21:37:19.779Z,10.00
2022-12-22T21:39:49.171Z,10.10
2022-12-22T21:42:19.968Z,10.10
2022-12-22T21:44:48.417Z,10.10
2022-12-22T21:47:21.246Z,10.00
2022-12-22T21:49:49.297Z,10.00
2022-12-22T21:52:17.574Z,10.00
2022-12-22T21:54:45.917Z,10.00
2022-12-22T21:57:16.637Z,10.00
2022-12-22T21:59:44.814Z,10.10
2022-12-22T22:02:18.209Z,10.10
2022-12-22T22:04:54.541Z,10.10
2022-12-22T22:07:23.694Z,10.20
2022-12-22T22:09:51.928Z,10.10
2022-12-22T22:12:37.138Z,10.10
2022-12-22T22:15:07.446Z,10.10
2022-12-22T22:17:35.617Z,10.20
2022-12-22T22:20:06.166Z,10.20
2022-12-22T22:22:34.275Z,10.20
2022-12-22T22:25:02.492Z,10.30
2022-12-22T22:27:30.694Z,10.30
2022-12-22T22:29:58.761Z,10.30
2022-12-22T22:32:26.864Z,10.30
2022-12-22T22:34:54.927Z,10.40
2022-12-22T22:37:24.476Z,10.40
2022-12-22T22:39:52.682Z,10.40
2022-12-22T22:42:20.925Z,10.40
2022-12-22T22:44:49.236Z,10.40
2022-12-22T22:47:17.497Z,10.40
2022-12-22T22:49:45.529Z,10.40
2022-12-22T22:52:13.528Z,10.50
2022-12-22T22:54:42.948Z,10.50
2022-12-22T22:57:11.071Z,10.60
2022-12-22T22:59:39.233Z,10.50
2022-12-22T23:02:07.371Z,10.60
2022-12-22T23:04:35.639Z,10.60
2022-12-22T23:07:04.566Z,10.60
2022-12-22T23:09:32.597Z,10.60
2022-12-22T23:12:02.010Z,10.60
2022-12-22T23:14:30.167Z,10.60
2022-12-22T23:16:58.300Z,10.60
2022-12-22T23:19:26.518Z,10.60
2022-12-22T23:21:54.676Z,10.70
2022-12-22T23:24:22.731Z,10.70
2022-12-22T23:26:50.971Z,10.70
2022-12-22T23:29:20.361Z,10.80
2022-12-22T23:31:48.519Z,10.80
2022-12-22T23:34:17.043Z,10.80
2022-12-22T23:36:45.369Z,10.80
2022-12-22T23:39:14.800Z,10.90
2022-12-22T23:41:42.941Z,10.90
2022-12-22T23:44:11.220Z,11.00
2022-12-22T23:46:41.270Z,11.00
2022-12-22T23:49:12.775Z,11.00
2022-12-22T23:51:40.924Z,11.00
2022-12-22T23:54:08.997Z,11.00
2022-12-22T23:56:37.034Z,11.10
2022-12-22T23:59:05.028Z,11.10
